Time;durP1;ratioP1;P1;durP2;ratioP2;P2;SDS_P1;SDS_P2;PMS_P1;PMS_P2;Temp;Humidity;BMP_temperature;BMP_pressure;BME280_temperature;BME280_humidity;BME280_pressure;Samples;Min_cycle;Max_cycle;Signal;HPM_P1;HPM_P2
2023/03/22 00:01:45;;;;;;;;;;;;;;;11.33;78.50;97896.47;5036475;28;19913;-65
2023/03/22 00:04:11;;;;;;;;;;;;;;;11.28;78.71;97900.38;5050051;28;20015;-66
2023/03/22 00:06:36;;;;;;;;;;;;;;;11.24;78.13;97898.94;5050805;28;19951;-66
2023/03/22 00:09:01;;;;;;;;;;;;;;;11.16;78.99;97895.13;5046264;28;19956;-66
2023/03/22 00:11:26;;;;;;;;;;;;;;;11.14;79.43;97898.81;5051418;28;19948;-65
2023/03/22 00:13:52;;;;;;;;;;;;;;;11.13;79.08;97897.97;5046950;28;19917;-66
2023/03/22 00:16:17;;;;;;;;;;;;;;;11.07;79.07;97903.69;5046702;28;19917;-66
2023/03/22 00:18:43;;;;;;;;;;;;;;;11.03;79.81;97910.13;5051795;28;19917;-65
2023/03/22 00:21:12;;;;;;;;;;;;;;;11.01;79.26;97909.41;5051613;28;19956;-66
2023/03/22 00:23:37;;;;;;;;;;;;;;;11.01;79.79;97900.69;5045068;28;19944;-66
2023/03/22 00:26:02;;;;;;;;;;;;;;;10.96;80.15;97903.66;5044336;28;20006;-66
2023/03/22 00:28:27;;;;;;;;;;;;;;;10.93;79.89;97901.25;5043464;28;19937;-66
2023/03/22 00:30:54;;;;;;;;;;;;;;;10.95;79.14;97899.38;5051321;28;20037;-66
2023/03/22 00:33:19;;;;;;;;;;;;;;;10.93;79.71;97902.09;5051388;28;19923;-66
2023/03/22 00:35:48;;;;;;;;;;;;;;;10.88;80.02;97892.91;5032078;28;20311;-66
2023/03/22 00:38:13;;;;;;;;;;;;;;;10.89;80.13;97892.78;5060078;28;20011;-66
2023/03/22 00:40:38;;;;;;;;;;;;;;;10.85;79.40;97888.72;5038903;28;20008;-66
2023/03/22 00:43:04;;;;;;;;;;;;;;;10.81;79.27;97886.44;5037762;28;20011;-66
2023/03/22 00:45:29;;;;;;;;;;;;;;;10.83;79.10;97889.78;5041373;28;19917;-66
2023/03/22 00:47:54;;;;;;;;;;;;;;;10.80;78.99;97884.75;5033619;28;20378;-66
2023/03/22 00:50:19;;;;;;;;;;;;;;;10.77;79.19;97879.72;5033740;28;19917;-66
2023/03/22 00:52:45;;;;;;;;;;;;;;;10.77;79.09;97884.97;5043078;28;19920;-66
2023/03/22 00:55:10;;;;;;;;;;;;;;;10.69;78.68;97872.44;5062511;28;19917;-65
2023/03/22 00:57:36;;;;;;;;;;;;;;;10.62;78.96;97877.31;5036867;28;19924;-66
2023/03/22 01:00:14;;;;;;;;;;;;;;;10.58;79.48;97885.53;5035423;28;19917;-65
2023/03/22 01:02:40;;;;;;;;;;;;;;;10.53;79.52;97887.63;5058444;28;20294;-66
2023/03/22 01:05:05;;;;;;;;;;;;;;;10.44;79.56;97889.16;5036495;28;20009;-66
2023/03/22 01:07:30;;;;;;;;;;;;;;;10.41;79.16;97881.50;5042379;28;20404;-66
2023/03/22 01:09:56;;;;;;;;;;;;;;;10.40;79.80;97879.84;5032677;28;19917;-65
2023/03/22 01:12:21;;;;;;;;;;;;;;;10.30;79.86;97870.97;5039508;28;19923;-65
2023/03/22 01:14:46;;;;;;;;;;;;;;;10.31;80.54;97878.72;5040299;28;19924;-66
2023/03/22 01:17:12;;;;;;;;;;;;;;;10.29;80.03;97875.38;5029162;28;19917;-66
2023/03/22 01:19:37;;;;;;;;;;;;;;;10.33;79.95;97878.63;5034542;28;19966;-66
2023/03/22 01:22:02;;;;;;;;;;;;;;;10.33;79.81;97876.00;5041098;28;19921;-66
2023/03/22 01:24:28;;;;;;;;;;;;;;;10.31;79.95;97875.25;5052910;28;19913;-66
2023/03/22 01:26:53;;;;;;;;;;;;;;;10.25;79.61;97871.25;5042829;28;19928;-65
2023/03/22 01:29:18;;;;;;;;;;;;;;;10.21;79.70;97857.53;5054261;28;19920;-66
2023/03/22 01:31:43;;;;;;;;;;;;;;;10.14;78.40;97861.56;5053287;28;19928;-66
2023/03/22 01:34:10;;;;;;;;;;;;;;;10.06;77.83;97863.06;5054045;28;19913;-66
2023/03/22 01:36:35;;;;;;;;;;;;;;;10.03;79.70;97861.50;5036935;28;19918;-64
2023/03/22 01:39:00;;;;;;;;;;;;;;;9.99;78.99;97857.44;5052823;28;19919;-65
2023/03/22 01:41:26;;;;;;;;;;;;;;;9.94;78.91;97855.16;5050762;28;20063;-65
2023/03/22 01:44:11;;;;;;;;;;;;;;;9.83;79.59;97851.59;5053742;28;20302;-66
2023/03/22 01:46:36;;;;;;;;;;;;;;;9.77;79.72;97855.47;5046512;28;19917;-65
2023/03/22 01:49:01;;;;;;;;;;;;;;;9.83;79.56;97852.44;5050874;28;19913;-65
2023/03/22 01:51:27;;;;;;;;;;;;;;;9.74;78.98;97848.69;5036904;28;19917;-65
2023/03/22 01:53:53;;;;;;;;;;;;;;;9.76;79.26;97851.19;5037771;28;19924;-65
2023/03/22 01:56:19;;;;;;;;;;;;;;;9.81;79.71;97843.03;5036791;28;19924;-65
2023/03/22 01:58:44;;;;;;;;;;;;;;;9.82;79.67;97844.69;5037231;28;19923;-65
2023/03/22 02:01:09;;;;;;;;;;;;;;;9.81;80.16;97843.03;5064123;28;19916;-65
2023/03/22 02:03:35;;;;;;;;;;;;;;;9.82;79.87;97842.09;5032997;28;19921;-65
2023/03/22 02:06:00;;;;;;;;;;;;;;;9.84;79.76;97837.56;5039475;28;20058;-65
2023/03/22 02:08:25;;;;;;;;;;;;;;;9.85;79.68;97836.63;5035712;28;19979;-65
2023/03/22 02:10:50;;;;;;;;;;;;;;;9.83;79.21;97841.97;5034516;28;19925;-65
2023/03/22 02:13:19;;;;;;;;;;;;;;;9.78;79.31;97838.84;5030168;28;19968;-65
2023/03/22 02:16:02;;;;;;;;;;;;;;;9.70;79.75;97836.78;5061989;28;19921;-65
2023/03/22 02:18:32;;;;;;;;;;;;;;;9.71;79.75;97833.19;5035426;28;19948;-64
2023/03/22 02:21:00;;;;;;;;;;;;;;;9.71;80.10;97835.00;5037639;28;19924;-65
2023/03/22 02:23:44;;;;;;;;;;;;;;;9.69;80.23;97840.31;5034391;28;19917;-65
2023/03/22 02:26:23;;;;;;;;;;;;;;;9.73;79.92;97836.53;5033640;28;19956;-65
2023/03/22 02:28:51;;;;;;;;;;;;;;;9.74;79.79;97833.00;5036956;28;19924;-66
2023/03/22 02:31:22;;;;;;;;;;;;;;;9.68;79.60;97843.88;5044300;28;20043;-65
2023/03/22 02:33:56;;;;;;;;;;;;;;;9.73;80.18;97839.16;5020055;28;19921;-64
2023/03/22 02:36:29;;;;;;;;;;;;;;;9.69;79.57;97837.69;5036208;28;20386;-65
2023/03/22 02:39:13;;;;;;;;;;;;;;;9.68;78.81;97833.41;5052112;28;20000;-65
2023/03/22 02:41:38;;;;;;;;;;;;;;;9.67;79.47;97830.88;5038572;28;20527;-65
2023/03/22 02:44:07;;;;;;;;;;;;;;;9.68;78.65;97822.94;5035624;28;19917;-65
2023/03/22 02:46:41;;;;;;;;;;;;;;;9.57;78.85;97822.88;5053277;28;19918;-65
2023/03/22 02:49:12;;;;;;;;;;;;;;;9.61;78.48;97824.31;5038350;28;20309;-65
2023/03/22 02:51:41;;;;;;;;;;;;;;;9.57;78.70;97820.25;5033112;28;19924;-65
2023/03/22 02:54:20;;;;;;;;;;;;;;;9.53;78.87;97816.16;5031534;28;19983;-64
2023/03/22 02:56:50;;;;;;;;;;;;;;;9.56;78.78;97818.56;5048641;28;19914;-64
2023/03/22 02:59:15;;;;;;;;;;;;;;;9.55;78.53;97821.28;5064235;28;20438;-65
2023/03/22 03:01:43;;;;;;;;;;;;;;;9.50;78.37;97819.00;5061734;28;19996;-65
2023/03/22 03:04:10;;;;;;;;;;;;;;;9.47;78.63;97808.75;5036098;28;19917;-64
2023/03/22 03:06:38;;;;;;;;;;;;;;;9.44;79.11;97806.34;5027152;28;19940;-65
2023/03/22 03:09:04;;;;;;;;;;;;;;;9.41;79.27;97811.78;5029691;28;20592;-65
2023/03/22 03:11:29;;;;;;;;;;;;;;;9.37;79.34;97811.19;5037035;28;19917;-64
2023/03/22 03:13:55;;;;;;;;;;;;;;;9.38;78.86;97812.00;5021409;28;19913;-65
2023/03/22 03:16:20;;;;;;;;;;;;;;;9.35;79.02;97810.44;5061731;28;19918;-65
2023/03/22 03:18:59;;;;;;;;;;;;;;;9.33;78.95;97809.72;5033577;28;19917;-65
2023/03/22 03:21:37;;;;;;;;;;;;;;;9.34;79.04;97810.56;5062407;28;19970;-66
2023/03/22 03:24:14;;;;;;;;;;;;;;;9.30;78.96;97807.31;5051849;28;19924;-65
2023/03/22 03:26:59;;;;;;;;;;;;;;;9.33;79.42;97812.34;5039388;28;19972;-65
2023/03/22 03:29:33;;;;;;;;;;;;;;;9.31;79.37;97808.97;5050949;28;19924;-65
2023/03/22 03:32:03;;;;;;;;;;;;;;;9.30;79.21;97809.09;5050687;28;19960;-65
2023/03/22 03:34:50;;;;;;;;;;;;;;;9.27;79.38;97813.59;5050765;28;19916;-65
2023/03/22 03:37:30;;;;;;;;;;;;;;;9.23;79.00;97809.53;5044742;28;19913;-65
2023/03/22 03:39:58;;;;;;;;;;;;;;;9.23;79.35;97809.53;5051784;28;19917;-65
2023/03/22 03:42:24;;;;;;;;;;;;;;;9.22;78.84;97826.16;5050985;28;20345;-65
2023/03/22 03:44:49;;;;;;;;;;;;;;;9.21;79.81;97814.00;5050541;28;20369;-65
2023/03/22 03:47:15;;;;;;;;;;;;;;;9.18;78.72;97824.69;5045686;28;20390;-65
2023/03/22 03:49:40;;;;;;;;;;;;;;;9.16;79.35;97816.13;5035720;28;19924;-66
2023/03/22 03:52:06;;;;;;;;;;;;;;;9.13;79.19;97815.50;5046866;28;19921;-65
2023/03/22 03:54:31;;;;;;;;;;;;;;;9.09;78.99;97821.88;5031929;28;20382;-66
2023/03/22 03:56:56;;;;;;;;;;;;;;;9.09;78.92;97820.09;5029348;28;20389;-65
2023/03/22 03:59:21;;;;;;;;;;;;;;;9.04;78.37;97819.56;5058144;28;20282;-65
2023/03/22 04:01:51;;;;;;;;;;;;;;;8.96;78.70;97820.09;5033606;28;20271;-65
2023/03/22 04:04:25;;;;;;;;;;;;;;;8.97;78.69;97823.53;5027997;28;19924;-66
2023/03/22 04:06:51;;;;;;;;;;;;;;;8.85;77.36;97827.00;5023931;28;19923;-65
2023/03/22 04:09:17;;;;;;;;;;;;;;;8.80;78.12;97833.34;5031965;28;19913;-65
2023/03/22 04:11:42;;;;;;;;;;;;;;;8.80;78.85;97828.13;5037025;28;19924;-64
2023/03/22 04:14:07;;;;;;;;;;;;;;;8.78;78.92;97829.19;5039154;28;19917;-65
2023/03/22 04:16:32;;;;;;;;;;;;;;;8.79;78.93;97829.06;5034735;28;19986;-64
2023/03/22 04:18:57;;;;;;;;;;;;;;;8.79;78.66;97829.06;5035118;28;19921;-66
2023/03/22 04:21:23;;;;;;;;;;;;;;;8.78;78.69;97826.59;5038604;28;20071;-66
2023/03/22 04:23:48;;;;;;;;;;;;;;;8.78;78.27;97837.88;5035500;28;20007;-66
2023/03/22 04:26:13;;;;;;;;;;;;;;;8.72;77.43;97838.28;5031400;28;19928;-64
2023/03/22 04:28:38;;;;;;;;;;;;;;;8.64;78.07;97839.75;5032515;28;20378;-65
2023/03/22 04:31:04;;;;;;;;;;;;;;;8.61;77.76;97840.78;5036113;28;20003;-65
2023/03/22 04:33:31;;;;;;;;;;;;;;;8.59;78.40;97832.19;5033276;28;19921;-64
2023/03/22 04:35:56;;;;;;;;;;;;;;;8.58;79.12;97835.75;5053999;28;19923;-65
2023/03/22 04:38:22;;;;;;;;;;;;;;;8.57;78.81;97828.84;5045853;28;20294;-66
2023/03/22 04:40:47;;;;;;;;;;;;;;;8.51;78.93;97830.09;5040943;28;20454;-65
2023/03/22 04:43:12;;;;;;;;;;;;;;;8.51;78.36;97830.09;5034853;28;20406;-65
2023/03/22 04:45:38;;;;;;;;;;;;;;;8.47;78.34;97833.00;5039508;28;20394;-65
2023/03/22 04:48:03;;;;;;;;;;;;;;;8.44;78.50;97833.22;5033118;28;19925;-65
2023/03/22 04:50:28;;;;;;;;;;;;;;;8.33;77.15;97826.88;5051075;28;20019;-65
2023/03/22 04:52:53;;;;;;;;;;;;;;;8.36;78.42;97828.44;5036476;28;19967;-65
2023/03/22 04:55:19;;;;;;;;;;;;;;;8.39;78.63;97822.22;5037581;28;19956;-65
2023/03/22 04:57:44;;;;;;;;;;;;;;;8.38;78.30;97826.59;5036914;28;20315;-65
2023/03/22 05:00:10;;;;;;;;;;;;;;;8.27;76.99;97824.66;5063665;28;19917;-66
2023/03/22 05:02:37;;;;;;;;;;;;;;;8.25;78.23;97833.53;5035800;28;19917;-65
2023/03/22 05:05:03;;;;;;;;;;;;;;;8.24;78.46;97834.47;5067046;28;19920;-65
2023/03/22 05:07:28;;;;;;;;;;;;;;;8.26;78.59;97833.44;5062625;28;20457;-65
2023/03/22 05:09:53;;;;;;;;;;;;;;;8.20;78.21;97833.84;5048070;28;19925;-64
2023/03/22 05:12:19;;;;;;;;;;;;;;;8.16;78.78;97829.75;5044816;28;19921;-65
2023/03/22 05:14:44;;;;;;;;;;;;;;;8.17;78.60;97831.41;5038077;28;19943;-64
2023/03/22 05:17:10;;;;;;;;;;;;;;;8.19;78.76;97829.56;5063611;28;19928;-65
2023/03/22 05:19:35;;;;;;;;;;;;;;;8.20;78.84;97825.16;5052345;28;19967;-65
2023/03/22 05:22:00;;;;;;;;;;;;;;;8.22;78.59;97826.72;5085371;28;19913;-65
2023/03/22 05:24:26;;;;;;;;;;;;;;;8.25;79.20;97826.53;5049674;28;19917;-66
2023/03/22 05:26:52;;;;;;;;;;;;;;;8.27;78.71;97816.81;5044087;28;19954;-63
2023/03/22 05:29:17;;;;;;;;;;;;;;;8.27;78.21;97822.06;5053477;28;19932;-64
2023/03/22 05:31:43;;;;;;;;;;;;;;;8.26;77.77;97822.16;5052922;28;19913;-62
2023/03/22 05:34:08;;;;;;;;;;;;;;;8.19;76.46;97821.72;5052707;28;19913;-63
2023/03/22 05:36:35;;;;;;;;;;;;;;;8.21;77.29;97817.22;5046739;28;19928;-62
2023/03/22 05:39:01;;;;;;;;;;;;;;;8.21;77.94;97821.59;5079933;28;19927;-64
2023/03/22 05:41:26;;;;;;;;;;;;;;;8.20;77.98;97818.16;5052813;28;19912;-64
2023/03/22 05:43:51;;;;;;;;;;;;;;;8.25;77.98;97808.22;5052605;28;20009;-63
2023/03/22 05:46:16;;;;;;;;;;;;;;;8.26;77.56;97816.94;5047531;28;19925;-65
2023/03/22 05:48:41;;;;;;;;;;;;;;;8.21;75.97;97808.53;5029498;28;19917;-66
2023/03/22 05:51:07;;;;;;;;;;;;;;;8.16;76.60;97813.25;5027194;28;19956;-65
2023/03/22 05:53:32;;;;;;;;;;;;;;;8.21;76.84;97806.75;5034679;28;19943;-65
2023/03/22 05:55:59;;;;;;;;;;;;;;;8.27;77.09;97810.75;5032394;28;19925;-66
2023/03/22 05:58:27;;;;;;;;;;;;;;;8.35;77.94;97807.63;5015030;28;20405;-65
2023/03/22 06:00:53;;;;;;;;;;;;;;;8.38;77.45;97797.03;5026938;28;19932;-66
2023/03/22 06:03:18;;;;;;;;;;;;;;;8.43;77.51;97805.38;5016042;28;19917;-66
2023/03/22 06:05:43;;;;;;;;;;;;;;;8.43;77.14;97805.38;5040853;28;20480;-66
2023/03/22 06:08:08;;;;;;;;;;;;;;;8.43;76.97;97806.25;5031069;28;20420;-65
2023/03/22 06:10:34;;;;;;;;;;;;;;;8.38;76.64;97797.03;5038389;28;19921;-65
2023/03/22 06:12:59;;;;;;;;;;;;;;;8.31;76.74;97802.63;5032791;28;19944;-66
2023/03/22 06:15:25;;;;;;;;;;;;;;;8.28;76.69;97797.59;5051109;28;19970;-66
2023/03/22 06:17:50;;;;;;;;;;;;;;;8.27;77.57;97793.31;5032783;28;19917;-65
2023/03/22 06:20:15;;;;;;;;;;;;;;;8.26;77.39;97794.25;5039405;28;19921;-65
2023/03/22 06:22:40;;;;;;;;;;;;;;;8.29;77.48;97801.03;5035945;28;20015;-65
2023/03/22 06:25:06;;;;;;;;;;;;;;;8.30;78.91;97800.13;5039508;28;20302;-65
2023/03/22 06:27:31;;;;;;;;;;;;;;;8.30;78.82;97798.34;5065520;28;19959;-65
2023/03/22 06:29:57;;;;;;;;;;;;;;;8.36;79.17;97799.69;5032243;28;20367;-65
2023/03/22 06:32:25;;;;;;;;;;;;;;;8.45;79.30;97793.06;5034102;28;20405;-65
2023/03/22 06:34:54;;;;;;;;;;;;;;;8.52;80.01;97795.16;5061849;28;19924;-65
2023/03/22 06:37:19;;;;;;;;;;;;;;;8.62;79.96;97794.56;5057898;28;19925;-65
2023/03/22 06:39:45;;;;;;;;;;;;;;;8.75;81.57;97792.78;5064717;28;20039;-65
2023/03/22 06:42:11;;;;;;;;;;;;;;;8.85;82.62;97795.63;5032222;28;19917;-65
2023/03/22 06:44:36;;;;;;;;;;;;;;;8.95;82.70;97802.75;5032114;28;19917;-66
2023/03/22 06:47:02;;;;;;;;;;;;;;;9.06;83.16;97788.91;5062830;28;19921;-66
2023/03/22 06:49:27;;;;;;;;;;;;;;;9.17;84.10;97788.16;5056240;28;19924;-66
2023/03/22 06:51:52;;;;;;;;;;;;;;;9.27;83.38;97786.59;5027257;28;19921;-66
2023/03/22 06:54:17;;;;;;;;;;;;;;;9.38;84.56;97799.75;5022019;28;20019;-66
2023/03/22 06:56:43;;;;;;;;;;;;;;;9.48;84.40;97794.72;5063382;28;19913;-66
2023/03/22 06:59:08;;;;;;;;;;;;;;;9.56;83.89;97797.63;5038605;28;19924;-66
2023/03/22 07:01:33;;;;;;;;;;;;;;;9.56;81.14;97787.13;5063491;28;20302;-66
2023/03/22 07:03:58;;;;;;;;;;;;;;;9.55;80.34;97790.72;5033016;28;19963;-66
2023/03/22 07:06:24;;;;;;;;;;;;;;;9.54;80.20;97796.91;5064856;28;19918;-65
2023/03/22 07:08:49;;;;;;;;;;;;;;;9.55;79.98;97801.19;5031693;28;19913;-65
2023/03/22 07:11:14;;;;;;;;;;;;;;;9.57;79.62;97798.47;5032843;28;19971;-65
2023/03/22 07:13:40;;;;;;;;;;;;;;;9.58;79.41;97802.75;5031908;28;19924;-65
2023/03/22 07:16:05;;;;;;;;;;;;;;;9.61;78.84;97805.16;5030995;28;20283;-65
2023/03/22 07:18:30;;;;;;;;;;;;;;;10.14;80.66;97803.91;5031038;28;19987;-65
2023/03/22 07:20:56;;;;;;;;;;;;;;;10.13;76.60;97797.00;5029533;28;20306;-65
2023/03/22 07:23:21;;;;;;;;;;;;;;;10.12;76.09;97799.75;5035187;28;20298;-65
2023/03/22 07:25:46;;;;;;;;;;;;;;;10.13;74.84;97802.22;5064302;28;20160;-66
2023/03/22 07:28:11;;;;;;;;;;;;;;;10.16;75.45;97796.78;5065250;28;19925;-65
2023/03/22 07:30:37;;;;;;;;;;;;;;;10.20;75.78;97805.25;5030892;28;20008;-65
2023/03/22 07:33:03;;;;;;;;;;;;;;;10.26;75.88;97801.38;5031062;28;20003;-66
2023/03/22 07:35:28;;;;;;;;;;;;;;;10.30;74.51;97803.66;5031025;28;20007;-65
2023/03/22 07:37:54;;;;;;;;;;;;;;;10.36;74.71;97803.22;5032370;28;19958;-65
2023/03/22 07:40:19;;;;;;;;;;;;;;;10.43;73.62;97798.34;5032384;28;19982;-66
2023/03/22 07:42:46;;;;;;;;;;;;;;;10.50;72.93;97802.19;5033285;28;19928;-66
2023/03/22 07:45:11;;;;;;;;;;;;;;;10.60;72.07;97803.16;5032625;28;19917;-66
2023/03/22 07:47:36;;;;;;;;;;;;;;;10.67;72.56;97804.38;5032064;28;19967;-66
2023/03/22 07:50:02;;;;;;;;;;;;;;;10.76;71.92;97802.81;5032185;28;19959;-65
2023/03/22 07:52:28;;;;;;;;;;;;;;;10.86;72.23;97797.72;5031949;28;19921;-66
2023/03/22 07:54:53;;;;;;;;;;;;;;;10.98;71.13;97799.44;5031977;28;20379;-65
2023/03/22 07:57:18;;;;;;;;;;;;;;;11.09;70.22;97786.31;5029340;28;20290;-66
2023/03/22 07:59:43;;;;;;;;;;;;;;;11.18;69.39;97790.00;5035549;28;20353;-66
2023/03/22 08:02:09;;;;;;;;;;;;;;;11.27;70.19;97789.28;5064121;28;20351;-66
2023/03/22 08:04:35;;;;;;;;;;;;;;;11.36;69.25;97785.97;5030750;28;19923;-66
2023/03/22 08:07:00;;;;;;;;;;;;;;;11.44;69.04;97785.34;5031981;28;19913;-65
2023/03/22 08:09:25;;;;;;;;;;;;;;;11.53;68.54;97794.31;5032028;28;19920;-66
2023/03/22 08:11:50;;;;;;;;;;;;;;;11.59;67.20;97791.16;5029444;28;20524;-66
2023/03/22 08:14:16;;;;;;;;;;;;;;;11.72;67.65;97789.25;5063353;28;19917;-66
2023/03/22 08:16:42;;;;;;;;;;;;;;;11.78;67.48;97783.50;5030768;28;19967;-66
2023/03/22 08:19:08;;;;;;;;;;;;;;;11.91;65.88;97791.28;5031960;28;19913;-66
2023/03/22 08:21:33;;;;;;;;;;;;;;;11.98;66.22;97792.44;5031844;28;19913;-66
2023/03/22 08:23:58;;;;;;;;;;;;;;;12.07;65.71;97794.31;5031654;28;19914;-66
2023/03/22 08:26:23;;;;;;;;;;;;;;;12.17;64.33;97790.94;5031892;28;19924;-67
2023/03/22 08:28:49;;;;;;;;;;;;;;;12.26;64.62;97791.03;5031728;28;19931;-66
2023/03/22 08:31:14;;;;;;;;;;;;;;;12.37;64.56;97789.31;5046928;28;19913;-66
2023/03/22 08:33:40;;;;;;;;;;;;;;;12.50;62.97;97793.44;5030540;28;19923;-66
2023/03/22 08:36:06;;;;;;;;;;;;;;;12.58;62.52;97792.78;5030478;28;19913;-66
2023/03/22 08:38:31;;;;;;;;;;;;;;;12.70;62.75;97791.78;5031853;28;19967;-66
2023/03/22 08:40:56;;;;;;;;;;;;;;;12.84;61.98;97795.88;5033000;28;19920;-66
2023/03/22 08:43:21;;;;;;;;;;;;;;;12.92;60.69;97789.97;5030211;28;19959;-66
2023/03/22 08:45:47;;;;;;;;;;;;;;;13.01;59.33;97790.03;5031555;28;19921;-66
2023/03/22 08:48:12;;;;;;;;;;;;;;;13.11;59.89;97795.34;5031635;28;19944;-66
2023/03/22 08:50:38;;;;;;;;;;;;;;;13.17;59.92;97791.34;5031651;28;19980;-66
2023/03/22 08:53:04;;;;;;;;;;;;;;;13.28;60.07;97788.63;5030207;28;19921;-66
2023/03/22 08:55:30;;;;;;;;;;;;;;;13.35;59.96;97792.44;5033774;28;19924;-66
2023/03/22 08:57:57;;;;;;;;;;;;;;;13.46;57.64;97789.72;5033709;28;19986;-66
2023/03/22 09:00:23;;;;;;;;;;;;;;;13.53;57.35;97779.47;5033535;28;20481;-66
2023/03/22 09:02:49;;;;;;;;;;;;;;;13.63;56.96;97784.78;5033850;28;19920;-66
2023/03/22 09:05:14;;;;;;;;;;;;;;;13.69;56.61;97778.94;5033640;28;19913;-66
2023/03/22 09:07:40;;;;;;;;;;;;;;;13.80;56.79;97776.22;5035150;28;19917;-66
2023/03/22 09:10:05;;;;;;;;;;;;;;;13.87;57.20;97779.13;5031879;28;19921;-66
2023/03/22 09:12:31;;;;;;;;;;;;;;;13.97;55.74;97775.53;5029925;28;20402;-66
2023/03/22 09:14:56;;;;;;;;;;;;;;;14.07;55.42;97772.91;5033327;28;19913;-66
2023/03/22 09:17:21;;;;;;;;;;;;;;;14.19;55.60;97770.97;5033589;28;19913;-66
2023/03/22 09:19:46;;;;;;;;;;;;;;;14.33;54.93;97773.19;5033677;28;19920;-67
2023/03/22 09:22:12;;;;;;;;;;;;;;;14.44;53.24;97770.41;5034867;28;19913;-66
2023/03/22 09:24:37;;;;;;;;;;;;;;;14.56;52.83;97767.66;5032218;28;20357;-66
2023/03/22 09:27:03;;;;;;;;;;;;;;;14.62;53.44;97772.38;5037294;28;19975;-66
2023/03/22 09:29:28;;;;;;;;;;;;;;;14.77;52.27;97776.25;5035171;28;19925;-66
2023/03/22 09:31:53;;;;;;;;;;;;;;;14.82;51.62;97773.16;5034331;28;19913;-66
2023/03/22 09:34:19;;;;;;;;;;;;;;;14.92;51.77;97761.59;5033185;28;20383;-67
2023/03/22 09:36:44;;;;;;;;;;;;;;;15.04;51.67;97767.56;5033076;28;20436;-66
2023/03/22 09:39:09;;;;;;;;;;;;;;;15.18;52.31;97774.19;5016696;28;19920;-66
2023/03/22 09:41:35;;;;;;;;;;;;;;;15.31;50.46;97747.44;5033106;28;19921;-66
2023/03/22 09:44:05;;;;;;;;;;;;;;;15.39;50.13;97764.22;5034624;28;19917;-66
2023/03/22 09:46:31;;;;;;;;;;;;;;;15.52;50.08;97760.41;5033029;28;19935;-66
2023/03/22 09:49:00;;;;;;;;;;;;;;;15.60;48.64;97753.41;5016721;28;20454;-66
2023/03/22 09:51:30;;;;;;;;;;;;;;;15.69;49.56;97750.88;5016403;28;19963;-65
2023/03/22 09:53:56;;;;;;;;;;;;;;;15.77;49.04;97756.28;5036341;28;19925;-66
2023/03/22 09:56:25;;;;;;;;;;;;;;;15.86;47.88;97755.34;5016664;28;20011;-66
2023/03/22 09:58:53;;;;;;;;;;;;;;;15.92;47.35;97746.84;5066350;28;20071;-66
2023/03/22 10:01:27;;;;;;;;;;;;;;;16.03;48.24;97748.44;5033944;28;20463;-66
2023/03/22 10:03:53;;;;;;;;;;;;;;;16.14;47.52;97740.28;5033889;28;19961;-66
2023/03/22 10:06:19;;;;;;;;;;;;;;;16.30;47.64;97743.06;5066037;28;20302;-66
2023/03/22 10:09:12;;;;;;;;;;;;;;;16.47;47.39;97741.38;5069645;28;19917;-66
2023/03/22 10:11:57;;;;;;;;;;;;;;;16.69;45.89;97732.13;5039347;28;19951;-66
2023/03/22 10:14:29;;;;;;;;;;;;;;;16.77;45.02;97737.50;5014680;28;20281;-67
2023/03/22 10:16:55;;;;;;;;;;;;;;;16.90;44.86;97730.97;5015003;28;20408;-66
2023/03/22 10:19:22;;;;;;;;;;;;;;;16.99;44.46;97735.31;4998417;28;20008;-66
2023/03/22 10:21:48;;;;;;;;;;;;;;;17.13;43.90;97726.75;5014784;28;20011;-65
2023/03/22 10:24:20;;;;;;;;;;;;;;;17.29;43.51;97724.19;5022747;28;20020;-66
2023/03/22 10:26:45;;;;;;;;;;;;;;;17.44;43.17;97723.59;5028779;28;20342;-66
2023/03/22 10:29:12;;;;;;;;;;;;;;;17.56;42.92;97717.03;5034454;28;19924;-66
2023/03/22 10:31:37;;;;;;;;;;;;;;;17.68;42.26;97714.88;5034426;28;19919;-67
2023/03/22 10:34:06;;;;;;;;;;;;;;;17.74;41.97;97720.38;5033978;28;19917;-66
2023/03/22 10:36:33;;;;;;;;;;;;;;;17.90;43.33;97721.44;5034375;28;19948;-66
2023/03/22 10:39:17;;;;;;;;;;;;;;;18.03;41.77;97714.66;5032101;28;20291;-66
2023/03/22 10:41:42;;;;;;;;;;;;;;;18.24;40.98;97718.66;5038257;28;19919;-66
2023/03/22 10:44:09;;;;;;;;;;;;;;;18.16;41.77;97714.16;5034056;28;20321;-66
2023/03/22 10:46:35;;;;;;;;;;;;;;;18.33;41.16;97700.91;5034198;28;20396;-67
2023/03/22 10:49:01;;;;;;;;;;;;;;;18.39;40.55;97698.41;5031852;28;20637;-66
2023/03/22 10:51:26;;;;;;;;;;;;;;;18.30;40.21;97696.75;5065128;28;20008;-66
2023/03/22 10:53:52;;;;;;;;;;;;;;;18.39;41.32;97700.25;5037258;28;20023;-66
2023/03/22 10:56:18;;;;;;;;;;;;;;;18.39;39.97;97703.72;5031682;28;20387;-66
2023/03/22 10:58:44;;;;;;;;;;;;;;;18.48;40.19;97688.63;5031828;28;19963;-66
2023/03/22 11:01:10;;;;;;;;;;;;;;;18.71;39.44;97692.25;5031618;28;19996;-66
2023/03/22 11:03:37;;;;;;;;;;;;;;;19.01;39.03;97691.69;5015104;28;19924;-66
2023/03/22 11:06:02;;;;;;;;;;;;;;;19.23;38.67;97682.16;5032555;28;20400;-66
2023/03/22 11:08:27;;;;;;;;;;;;;;;19.46;38.63;97680.38;5037963;28;19956;-66
2023/03/22 11:10:53;;;;;;;;;;;;;;;19.70;37.89;97678.63;5032584;28;19944;-66
2023/03/22 11:13:23;;;;;;;;;;;;;;;19.99;38.15;97680.59;5031401;28;19921;-67
2023/03/22 11:15:52;;;;;;;;;;;;;;;20.36;37.96;97671.81;5064568;28;19978;-66
2023/03/22 11:18:17;;;;;;;;;;;;;;;20.71;35.55;97674.84;5031461;28;20298;-66
2023/03/22 11:20:51;;;;;;;;;;;;;;;20.89;35.21;97671.81;5032617;28;19914;-66
2023/03/22 11:23:16;;;;;;;;;;;;;;;21.00;35.82;97674.03;5031464;28;19966;-66
2023/03/22 11:25:45;;;;;;;;;;;;;;;21.13;34.83;97684.88;5064326;28;19913;-66
2023/03/22 11:28:18;;;;;;;;;;;;;;;21.21;34.68;97675.97;5031284;28;19920;-66
2023/03/22 11:31:03;;;;;;;;;;;;;;;21.29;34.69;97673.19;5031206;28;19913;-66
2023/03/22 11:33:28;;;;;;;;;;;;;;;21.43;34.36;97669.69;5032295;28;20306;-66
2023/03/22 11:35:54;;;;;;;;;;;;;;;21.21;35.09;97665.28;5032271;28;20397;-66
2023/03/22 11:38:23;;;;;;;;;;;;;;;21.20;35.46;97663.66;5017767;28;19923;-66
2023/03/22 11:40:51;;;;;;;;;;;;;;;21.39;34.56;97660.41;5063718;28;19920;-67
2023/03/22 11:43:20;;;;;;;;;;;;;;;21.64;34.25;97654.75;5014318;28;19920;-66
2023/03/22 11:45:45;;;;;;;;;;;;;;;21.85;34.64;97651.25;5030484;28;19940;-65
2023/03/22 11:48:14;;;;;;;;;;;;;;;21.97;33.07;97650.56;5030847;28;20362;-65
2023/03/22 11:50:40;;;;;;;;;;;;;;;22.23;32.00;97644.69;5030660;28;19980;-65
2023/03/22 11:53:06;;;;;;;;;;;;;;;22.32;33.05;97653.38;5035537;28;20380;-65
2023/03/22 11:55:32;;;;;;;;;;;;;;;22.48;31.49;97645.06;5030520;28;19959;-65
2023/03/22 11:57:57;;;;;;;;;;;;;;;22.47;32.10;97642.59;5014284;28;19920;-65
2023/03/22 12:00:23;;;;;;;;;;;;;;;22.68;33.11;97644.41;5032222;28;19912;-63
2023/03/22 12:03:08;;;;;;;;;;;;;;;22.84;32.32;97649.41;5013439;28;20290;-65
2023/03/22 12:05:33;;;;;;;;;;;;;;;23.12;34.60;97640.53;5064212;28;20267;-64
2023/03/22 12:08:08;;;;;;;;;;;;;;;23.14;31.29;97641.19;5035299;28;19924;-64
2023/03/22 12:10:37;;;;;;;;;;;;;;;23.16;32.99;97639.16;5032183;28;19971;-65
2023/03/22 12:13:04;;;;;;;;;;;;;;;22.96;33.86;97623.81;5034096;28;19960;-64
2023/03/22 12:15:37;;;;;;;;;;;;;;;23.13;32.86;97628.84;5031689;28;19914;-64
2023/03/22 12:18:16;;;;;;;;;;;;;;;23.24;34.02;97619.44;5030930;28;19953;-66
2023/03/22 12:20:41;;;;;;;;;;;;;;;23.24;30.06;97614.06;5035072;28;19917;-68
2023/03/22 12:23:08;;;;;;;;;;;;;;;22.94;29.76;97619.69;5031953;28;19921;-66
2023/03/22 12:25:34;;;;;;;;;;;;;;;23.36;31.39;97613.28;5030774;28;20110;-66
2023/03/22 12:28:01;;;;;;;;;;;;;;;23.72;29.33;97612.19;5030664;28;19967;-66
2023/03/22 12:30:27;;;;;;;;;;;;;;;24.12;29.71;97614.88;5030610;28;19995;-66
2023/03/22 12:33:00;;;;;;;;;;;;;;;24.30;27.72;97620.47;5030507;28;19918;-65
2023/03/22 12:35:27;;;;;;;;;;;;;;;24.57;27.23;97615.09;5031253;28;19928;-66
2023/03/22 12:37:53;;;;;;;;;;;;;;;24.79;27.41;97613.84;5067643;28;19920;-66
2023/03/22 12:40:22;;;;;;;;;;;;;;;24.60;27.86;97620.91;5034411;28;19914;-66
2023/03/22 12:42:47;;;;;;;;;;;;;;;24.73;27.25;97603.13;5035720;28;20008;-64
2023/03/22 12:45:13;;;;;;;;;;;;;;;24.54;27.31;97605.63;5035441;28;20381;-64
2023/03/22 12:47:42;;;;;;;;;;;;;;;24.47;27.25;97609.38;5017776;28;19920;-65
2023/03/22 12:50:11;;;;;;;;;;;;;;;24.49;28.38;97602.75;5035741;28;19917;-63